Time;durP1;ratioP1;P1;durP2;ratioP2;P2;SDS_P1;SDS_P2;PMS_P1;PMS_P2;Temp;Humidity;BMP_temperature;BMP_pressure;BME280_temperature;BME280_humidity;BME280_pressure;Samples;Min_cycle;Max_cycle;Signal;HPM_P1;HPM_P2
2021/09/20 00:01:57;;;;;;;2.80;2.70;;;22.90;51.50;;;;;;5106481;28;20463;-79
2021/09/20 00:04:26;;;;;;;2.80;2.37;;;23.00;51.50;;;;;;5106434;28;20472;-79
2021/09/20 00:06:53;;;;;;;3.00;2.80;;;23.00;51.60;;;;;;5106685;28;20493;-78
2021/09/20 00:09:21;;;;;;;3.23;3.03;;;23.00;51.60;;;;;;5106351;28;20467;-78
2021/09/20 00:11:49;;;;;;;2.23;2.13;;;22.90;51.50;;;;;;5106343;28;20423;-79
2021/09/20 00:14:17;;;;;;;2.77;2.60;;;22.90;51.50;;;;;;5106487;28;20414;-79
2021/09/20 00:16:45;;;;;;;2.97;2.77;;;22.90;51.50;;;;;;5106605;28;20438;-79
2021/09/20 00:19:15;;;;;;;2.67;2.47;;;22.90;51.60;;;;;;5106763;28;20454;-79
2021/09/20 00:21:43;;;;;;;2.80;2.37;;;22.90;51.50;;;;;;5105942;28;20422;-79
2021/09/20 00:24:11;;;;;;;2.77;2.60;;;22.90;51.60;;;;;;5106394;28;20419;-79
2021/09/20 00:26:39;;;;;;;2.70;2.57;;;22.90;51.60;;;;;;5106212;28;20418;-79
2021/09/20 00:29:07;;;;;;;2.90;2.70;;;22.90;51.60;;;;;;5106288;28;20415;-79
2021/09/20 00:31:35;;;;;;;3.60;3.30;;;22.90;51.60;;;;;;5105821;28;20446;-79
2021/09/20 00:34:05;;;;;;;3.13;2.93;;;22.90;51.60;;;;;;5105969;28;20505;-79
2021/09/20 00:36:34;;;;;;;3.23;2.93;;;22.90;51.70;;;;;;5106373;28;20500;-79
2021/09/20 00:39:02;;;;;;;3.10;2.90;;;22.90;51.70;;;;;;5104827;28;20593;-80
2021/09/20 00:41:30;;;;;;;3.27;3.07;;;22.90;51.60;;;;;;5102543;28;20501;-80
2021/09/20 00:43:58;;;;;;;2.83;2.63;;;22.90;51.70;;;;;;5097753;28;20474;-79
2021/09/20 00:46:26;;;;;;;2.63;2.53;;;22.90;51.70;;;;;;5106260;28;20418;-80
2021/09/20 00:48:54;;;;;;;2.83;2.63;;;22.90;51.70;;;;;;5106242;28;20481;-79
2021/09/20 00:51:25;;;;;;;3.00;2.80;;;22.90;51.60;;;;;;5101263;28;20442;-79
2021/09/20 00:53:54;;;;;;;2.83;2.63;;;22.90;51.70;;;;;;5105959;28;20467;-79
2021/09/20 00:56:22;;;;;;;2.80;2.60;;;22.90;51.70;;;;;;5105861;28;20488;-80
2021/09/20 00:58:50;;;;;;;2.87;2.67;;;22.90;51.70;;;;;;5105759;28;20434;-80
2021/09/20 01:01:19;;;;;;;2.93;2.63;;;22.90;51.70;;;;;;5105438;28;20395;-80
2021/09/20 01:03:47;;;;;;;3.20;2.90;;;22.80;51.60;;;;;;5105428;28;20452;-79
2021/09/20 01:06:15;;;;;;;2.97;2.77;;;22.80;51.60;;;;;;5105506;28;20461;-79
2021/09/20 01:08:43;;;;;;;2.80;2.60;;;22.80;51.60;;;;;;5105605;28;20442;-79
2021/09/20 01:11:12;;;;;;;2.70;2.60;;;22.80;51.60;;;;;;5104990;28;20440;-81
2021/09/20 01:13:40;;;;;;;3.00;2.67;;;22.80;51.70;;;;;;5105603;28;20458;-80
2021/09/20 01:16:08;;;;;;;2.37;2.27;;;22.80;51.60;;;;;;5096837;28;20437;-81
2021/09/20 01:18:36;;;;;;;2.87;2.67;;;22.80;51.60;;;;;;5091567;28;20503;-81
2021/09/20 01:21:04;;;;;;;3.20;3.00;;;22.80;51.70;;;;;;5100030;28;20467;-80
2021/09/20 01:23:34;;;;;;;2.90;2.40;;;22.80;51.70;;;;;;5104679;28;20467;-80
2021/09/20 01:26:02;;;;;;;2.90;2.80;;;22.80;51.60;;;;;;5105086;28;20455;-80
2021/09/20 01:28:30;;;;;;;2.70;2.50;;;22.80;52.30;;;;;;5104130;28;20516;-80
2021/09/20 01:30:58;;;;;;;2.67;2.47;;;22.80;51.70;;;;;;5103738;28;20418;-80
2021/09/20 01:33:26;;;;;;;7.43;2.87;;;22.80;51.60;;;;;;5103904;28;20440;-80
2021/09/20 01:35:54;;;;;;;3.30;3.10;;;22.70;51.60;;;;;;5103916;28;20444;-80
2021/09/20 01:38:22;;;;;;;2.60;2.40;;;22.70;51.70;;;;;;5103802;28;20438;-80
2021/09/20 01:40:51;;;;;;;3.07;2.87;;;22.70;51.60;;;;;;5103751;28;20418;-80
2021/09/20 01:43:19;;;;;;;3.23;2.93;;;22.80;51.70;;;;;;5103707;28;20520;-80
2021/09/20 01:45:47;;;;;;;2.80;2.50;;;22.70;51.60;;;;;;5103693;28;20411;-80
2021/09/20 01:48:17;;;;;;;2.93;2.70;;;22.70;51.70;;;;;;5104589;28;20493;-81
2021/09/20 01:50:45;;;;;;;3.20;2.73;;;22.70;51.70;;;;;;5104563;28;20495;-80
2021/09/20 01:53:13;;;;;;;3.70;2.67;;;22.70;51.70;;;;;;5104237;28;20410;-80
2021/09/20 01:55:41;;;;;;;2.60;2.50;;;22.70;51.70;;;;;;5104280;28;20444;-80
2021/09/20 01:58:11;;;;;;;2.90;2.70;;;22.70;51.70;;;;;;5101066;28;20528;-80
2021/09/20 02:00:43;;;;;;;2.70;2.23;;;22.70;51.70;;;;;;5101316;28;20428;-80
2021/09/20 02:03:12;;;;;;;2.87;2.67;;;22.70;51.80;;;;;;5096537;28;20432;-81
2021/09/20 02:05:40;;;;;;;2.30;2.20;;;22.70;51.70;;;;;;5105945;28;20509;-80
2021/09/20 02:08:09;;;;;;;2.77;2.60;;;22.70;51.80;;;;;;5105952;28;20410;-80
2021/09/20 02:10:37;;;;;;;2.87;2.70;;;22.70;51.80;;;;;;5105177;28;20399;-80
2021/09/20 02:13:05;;;;;;;2.40;2.27;;;22.70;51.70;;;;;;5104632;28;20464;-80
2021/09/20 02:15:34;;;;;;;3.00;2.80;;;22.70;51.70;;;;;;5104923;28;20406;-81
2021/09/20 02:18:02;;;;;;;2.50;2.30;;;22.70;52.40;;;;;;5104627;28;20528;-81
2021/09/20 02:20:33;;;;;;;2.67;2.47;;;22.60;51.80;;;;;;5104584;28;20439;-81
2021/09/20 02:23:01;;;;;;;2.40;2.30;;;22.60;51.80;;;;;;5104709;28;20448;-80
2021/09/20 02:25:29;;;;;;;2.67;2.57;;;22.60;51.80;;;;;;5093295;28;20478;-80
2021/09/20 02:27:57;;;;;;;2.67;2.57;;;22.60;51.80;;;;;;5104953;28;20430;-81
2021/09/20 02:30:25;;;;;;;2.53;2.17;;;22.60;51.80;;;;;;5109247;28;20415;-81
2021/09/20 02:32:54;;;;;;;2.90;2.27;;;22.60;51.80;;;;;;5096986;28;20542;-81
2021/09/20 02:35:23;;;;;;;2.33;2.23;;;22.60;51.90;;;;;;5102469;28;20418;-80
2021/09/20 02:37:52;;;;;;;2.30;2.20;;;22.60;51.80;;;;;;5102675;28;20483;-81
2021/09/20 02:40:20;;;;;;;2.60;2.40;;;22.60;51.80;;;;;;5101992;28;20426;-81
2021/09/20 02:42:48;;;;;;;2.53;2.33;;;22.60;52.40;;;;;;5102959;28;20532;-81
2021/09/20 02:45:16;;;;;;;1.93;1.83;;;22.60;51.70;;;;;;5096056;28;20464;-79
2021/09/20 02:47:44;;;;;;;2.73;2.63;;;22.60;51.80;;;;;;5100275;28;20441;-79
2021/09/20 02:50:13;;;;;;;3.33;2.27;;;22.60;51.80;;;;;;5103643;28;20439;-79
2021/09/20 02:52:43;;;;;;;2.33;2.23;;;22.60;51.80;;;;;;5105248;28;20414;-79
2021/09/20 02:55:12;;;;;;;2.23;2.13;;;22.50;51.70;;;;;;5104469;28;20452;-79
2021/09/20 02:57:40;;;;;;;2.70;2.57;;;22.60;51.80;;;;;;5107799;28;20422;-79
2021/09/20 03:00:10;;;;;;;2.60;2.50;;;22.60;51.80;;;;;;5106860;28;20495;-79
2021/09/20 03:02:38;;;;;;;2.40;2.30;;;22.60;51.80;;;;;;5107886;28;20449;-79
2021/09/20 03:05:07;;;;;;;2.23;2.13;;;22.60;51.80;;;;;;5107211;28;20428;-79
2021/09/20 03:07:37;;;;;;;2.40;2.30;;;22.60;51.80;;;;;;5101565;28;20450;-79
2021/09/20 03:10:06;;;;;;;2.53;2.43;;;22.50;51.80;;;;;;5106996;28;20510;-79
2021/09/20 03:12:34;;;;;;;2.47;2.37;;;22.50;51.80;;;;;;5107990;28;20478;-79
2021/09/20 03:15:02;;;;;;;2.60;2.47;;;22.50;51.80;;;;;;5102839;28;20498;-79
2021/09/20 03:17:31;;;;;;;2.83;2.63;;;22.50;51.80;;;;;;5107383;28;20438;-79
2021/09/20 03:20:00;;;;;;;2.23;2.13;;;22.50;51.80;;;;;;5107204;28;20482;-78
2021/09/20 03:22:28;;;;;;;2.50;2.30;;;22.50;51.80;;;;;;5107207;28;20430;-79
2021/09/20 03:24:57;;;;;;;2.17;2.07;;;22.50;51.80;;;;;;5107340;28;20403;-78
2021/09/20 03:27:25;;;;;;;2.20;2.10;;;22.50;51.80;;;;;;5107246;28;20508;-78
2021/09/20 03:29:53;;;;;;;2.60;2.40;;;22.50;51.90;;;;;;5106658;28;20483;-78
2021/09/20 03:32:21;;;;;;;2.57;2.47;;;22.50;51.80;;;;;;5106851;28;20403;-78
2021/09/20 03:34:49;;;;;;;2.27;2.17;;;22.50;51.90;;;;;;5107449;28;20448;-78
2021/09/20 03:37:18;;;;;;;1.90;1.80;;;22.50;51.80;;;;;;5106961;28;20407;-78
2021/09/20 03:39:46;;;;;;;2.83;2.63;;;22.50;51.90;;;;;;5106953;28;20442;-78
2021/09/20 03:42:16;;;;;;;2.63;2.43;;;22.50;51.90;;;;;;5106243;28;20422;-76
2021/09/20 03:44:44;;;;;;;1.90;1.80;;;22.50;51.80;;;;;;5107099;28;20456;-78
2021/09/20 03:47:12;;;;;;;2.40;2.23;;;22.50;51.90;;;;;;5107357;28;20448;-77
2021/09/20 03:49:40;;;;;;;2.17;2.07;;;22.50;51.90;;;;;;5102100;28;20411;-78
2021/09/20 03:52:11;;;;;;;2.33;2.23;;;22.40;51.90;;;;;;5105919;28;20487;-78
2021/09/20 03:54:39;;;;;;;2.10;2.00;;;22.50;51.90;;;;;;5106862;28;20523;-78
2021/09/20 03:57:07;;;;;;;2.00;1.90;;;22.40;51.90;;;;;;5106748;28;20452;-78
2021/09/20 03:59:36;;;;;;;1.90;1.80;;;22.40;51.90;;;;;;5106218;28;20446;-78
2021/09/20 04:02:04;;;;;;;2.30;2.20;;;22.40;51.90;;;;;;5092685;28;20445;-78
2021/09/20 04:04:33;;;;;;;2.00;1.90;;;22.40;51.90;;;;;;5103416;27;20470;-78
2021/09/20 04:07:04;;;;;;;2.40;2.30;;;22.40;51.90;;;;;;5104762;28;20518;-78
2021/09/20 04:09:33;;;;;;;2.60;2.50;;;22.40;51.90;;;;;;5105687;28;20432;-78
2021/09/20 04:12:01;;;;;;;2.13;2.03;;;22.40;51.90;;;;;;5105833;28;20444;-78
2021/09/20 04:14:29;;;;;;;2.63;2.43;;;22.40;51.90;;;;;;5106417;28;20411;-79
2021/09/20 04:16:58;;;;;;;2.93;2.23;;;22.40;52.00;;;;;;5105896;28;20442;-78
2021/09/20 04:19:26;;;;;;;2.27;2.17;;;22.40;51.90;;;;;;5106062;28;20467;-78
2021/09/20 04:21:54;;;;;;;3.00;2.57;;;22.40;52.00;;;;;;5106162;28;20433;-78
2021/09/20 04:24:22;;;;;;;2.30;2.20;;;22.40;51.90;;;;;;5106402;28;20407;-78
2021/09/20 04:26:50;;;;;;;2.87;2.40;;;22.40;51.90;;;;;;5105944;28;20520;-78
2021/09/20 04:29:18;;;;;;;2.30;2.20;;;22.40;52.00;;;;;;5106044;28;20507;-78
2021/09/20 04:31:46;;;;;;;2.67;2.47;;;22.40;52.00;;;;;;5104815;28;20500;-78
2021/09/20 04:34:16;;;;;;;2.30;2.20;;;22.40;52.00;;;;;;5106243;28;20399;-78
2021/09/20 04:36:44;;;;;;;2.27;2.10;;;22.40;52.00;;;;;;5105901;28;20467;-78
2021/09/20 04:39:12;;;;;;;2.10;2.00;;;22.40;52.00;;;;;;5099408;28;20482;-78
2021/09/20 04:41:40;;;;;;;1.90;1.80;;;22.40;52.00;;;;;;5104718;28;20463;-78
2021/09/20 04:44:09;;;;;;;2.27;2.17;;;22.40;51.90;;;;;;5105490;28;20566;-79
2021/09/20 04:46:37;;;;;;;2.40;2.20;;;22.30;51.90;;;;;;5105931;28;20432;-78
2021/09/20 04:49:05;;;;;;;2.23;2.13;;;22.40;52.00;;;;;;5105724;28;20406;-78
2021/09/20 04:51:34;;;;;;;3.00;2.80;;;22.40;52.00;;;;;;5105513;28;20440;-78
2021/09/20 04:54:02;;;;;;;3.03;2.50;;;22.30;51.90;;;;;;5105753;28;20431;-78
2021/09/20 04:56:32;;;;;;;2.13;2.03;;;22.30;52.00;;;;;;5100597;28;20463;-78
2021/09/20 04:59:00;;;;;;;2.50;2.37;;;22.30;52.00;;;;;;5105399;28;20444;-78
2021/09/20 05:01:28;;;;;;;2.47;2.37;;;22.30;52.00;;;;;;5105303;28;20448;-78
2021/09/20 05:03:56;;;;;;;2.70;2.50;;;22.30;52.00;;;;;;5105183;28;20473;-78
2021/09/20 05:06:24;;;;;;;2.10;2.00;;;22.30;52.00;;;;;;5104940;28;20436;-78
2021/09/20 05:08:53;;;;;;;2.23;2.13;;;22.30;52.00;;;;;;5105377;28;20445;-78
2021/09/20 05:11:21;;;;;;;2.30;2.20;;;22.30;52.00;;;;;;5105101;28;20455;-78
2021/09/20 05:13:49;;;;;;;2.23;2.13;;;22.30;52.00;;;;;;5105077;28;20467;-78
2021/09/20 05:16:17;;;;;;;1.93;1.83;;;22.30;51.90;;;;;;5104990;28;20460;-78
2021/09/20 05:18:45;;;;;;;2.60;2.40;;;22.30;52.00;;;;;;5105458;28;20443;-78
2021/09/20 05:21:13;;;;;;;2.27;2.17;;;22.30;52.10;;;;;;5097475;28;20521;-78
2021/09/20 05:23:43;;;;;;;3.27;2.03;;;22.30;52.00;;;;;;5105168;28;20449;-78
2021/09/20 05:26:13;;;;;;;2.17;1.97;;;22.30;52.00;;;;;;5085071;28;20428;-78
2021/09/20 05:28:41;;;;;;;2.30;2.20;;;22.30;52.10;;;;;;5084789;28;20498;-79
2021/09/20 05:31:09;;;;;;;2.10;2.00;;;22.30;52.00;;;;;;5085213;28;20436;-78
2021/09/20 05:33:37;;;;;;;2.40;2.30;;;22.20;52.10;;;;;;5084464;28;20492;-78
2021/09/20 05:36:06;;;;;;;2.30;2.20;;;22.20;52.00;;;;;;5084334;28;20437;-79
2021/09/20 05:38:34;;;;;;;2.13;2.03;;;22.20;52.00;;;;;;5084202;28;20407;-79
2021/09/20 05:41:02;;;;;;;1.93;1.83;;;22.20;52.10;;;;;;5084026;28;20512;-79
2021/09/20 05:43:31;;;;;;;2.70;2.40;;;22.20;52.00;;;;;;5084484;28;20443;-79
2021/09/20 05:45:59;;;;;;;2.00;1.90;;;22.20;52.10;;;;;;5084297;28;20404;-79
2021/09/20 05:48:27;;;;;;;3.53;2.23;;;22.30;52.10;;;;;;5084502;28;20461;-79
2021/09/20 05:50:55;;;;;;;2.13;2.03;;;22.20;52.00;;;;;;5083837;28;20431;-79
2021/09/20 05:53:23;;;;;;;2.47;2.23;;;22.20;52.10;;;;;;5084377;28;20441;-79
2021/09/20 05:55:52;;;;;;;2.17;2.07;;;22.20;52.00;;;;;;5084261;28;20491;-79
2021/09/20 05:58:20;;;;;;;2.00;1.90;;;22.20;52.00;;;;;;5084182;28;20399;-79
2021/09/20 06:00:50;;;;;;;2.10;2.00;;;22.20;52.00;;;;;;5084316;28;20525;-79
2021/09/20 06:03:19;;;;;;;2.07;1.97;;;22.20;52.10;;;;;;5094142;28;20549;-79
2021/09/20 06:05:47;;;;;;;2.30;2.20;;;22.20;52.00;;;;;;5104698;28;20439;-79
2021/09/20 06:08:16;;;;;;;2.10;2.00;;;22.20;52.00;;;;;;5104534;28;20462;-79
2021/09/20 06:10:45;;;;;;;2.43;2.23;;;22.20;52.00;;;;;;5104130;28;20470;-78
2021/09/20 06:13:12;;;;;;;2.60;2.50;;;22.20;52.00;;;;;;5104457;28;20425;-78
2021/09/20 06:15:40;;;;;;;2.20;2.10;;;22.20;52.00;;;;;;5104926;28;20512;-78
2021/09/20 06:18:10;;;;;;;2.17;2.07;;;22.20;52.00;;;;;;5105336;28;20487;-78
2021/09/20 06:20:38;;;;;;;2.30;2.20;;;22.20;52.00;;;;;;5104184;28;20468;-77
2021/09/20 06:23:06;;;;;;;2.10;2.00;;;22.20;52.00;;;;;;5104299;28;20423;-78
2021/09/20 06:25:34;;;;;;;1.70;1.60;;;22.20;52.00;;;;;;5104337;28;20467;-78
2021/09/20 06:28:04;;;;;;;2.37;2.17;;;22.30;52.10;;;;;;5104823;28;20439;-77
2021/09/20 06:30:32;;;;;;;2.03;1.93;;;22.20;52.10;;;;;;5105136;28;20419;-78
2021/09/20 06:33:00;;;;;;;2.40;2.30;;;22.30;52.00;;;;;;5108527;28;20427;-77
2021/09/20 06:35:29;;;;;;;2.97;2.60;;;22.20;52.00;;;;;;5108009;28;20440;-77
2021/09/20 06:37:57;;;;;;;2.57;2.37;;;22.30;52.00;;;;;;5108210;28;20443;-78
2021/09/20 06:40:25;;;;;;;2.27;2.10;;;22.30;52.00;;;;;;5108218;28;20552;-77
2021/09/20 06:42:55;;;;;;;2.60;2.43;;;22.20;52.00;;;;;;5108782;28;20418;-78
2021/09/20 06:45:23;;;;;;;2.47;2.27;;;22.30;52.00;;;;;;5108024;28;20428;-78
2021/09/20 06:47:52;;;;;;;1.80;1.70;;;22.30;52.00;;;;;;5107732;28;20442;-78
2021/09/20 06:50:19;;;;;;;3.60;2.77;;;22.30;52.00;;;;;;5108457;28;20472;-78
2021/09/20 06:52:49;;;;;;;2.37;2.27;;;22.30;52.00;;;;;;5107647;28;20420;-77
2021/09/20 06:55:17;;;;;;;2.43;2.33;;;22.30;52.00;;;;;;5108160;28;20528;-77
2021/09/20 06:57:45;;;;;;;1.97;1.87;;;22.30;51.90;;;;;;5107617;28;20536;-77
2021/09/20 07:00:15;;;;;;;2.40;2.30;;;22.30;52.00;;;;;;5107418;28;20427;-77
2021/09/20 07:02:43;;;;;;;2.07;1.97;;;22.30;51.90;;;;;;5107580;28;20446;-77
2021/09/20 07:05:13;;;;;;;2.30;2.20;;;22.30;51.90;;;;;;5107661;28;20436;-78
2021/09/20 07:07:41;;;;;;;2.10;2.00;;;22.40;52.00;;;;;;5107473;28;20440;-78
2021/09/20 07:10:12;;;;;;;2.40;2.30;;;22.40;52.00;;;;;;5106532;28;20432;-77
2021/09/20 07:12:41;;;;;;;2.27;2.17;;;22.40;52.00;;;;;;5107485;28;20424;-77
2021/09/20 07:15:10;;;;;;;2.90;1.60;;;22.40;52.00;;;;;;5107305;28;20534;-77
2021/09/20 07:17:38;;;;;;;2.37;2.27;;;22.40;52.00;;;;;;5107478;28;20411;-77
2021/09/20 07:20:08;;;;;;;2.17;2.07;;;22.40;51.90;;;;;;5107255;28;20512;-77
2021/09/20 07:22:36;;;;;;;2.77;2.67;;;22.40;51.90;;;;;;5106508;28;20491;-77
2021/09/20 07:25:05;;;;;;;2.30;2.20;;;22.40;51.90;;;;;;5108193;28;20443;-77
2021/09/20 07:27:35;;;;;;;2.60;2.50;;;22.40;51.90;;;;;;5107131;28;20448;-77
2021/09/20 07:30:16;;;;;;;2.30;2.20;;;22.40;51.90;;;;;;5107486;28;20470;-77
2021/09/20 07:32:47;;;;;;;2.40;2.20;;;22.50;51.80;;;;;;5107467;28;20462;-78
2021/09/20 07:35:16;;;;;;;2.10;1.80;;;22.50;51.80;;;;;;5106841;28;20444;-78
2021/09/20 07:37:45;;;;;;;2.40;2.30;;;22.50;51.90;;;;;;5107221;28;20520;-78
2021/09/20 07:40:13;;;;;;;3.30;2.20;;;22.50;51.90;;;;;;5104335;28;20476;-78
2021/09/20 07:42:43;;;;;;;2.00;1.90;;;22.50;51.80;;;;;;5106026;28;20442;-78
2021/09/20 07:45:11;;;;;;;2.50;2.40;;;22.60;51.80;;;;;;5106902;28;20428;-79
2021/09/20 07:47:40;;;;;;;2.50;2.30;;;22.50;51.70;;;;;;5106472;28;20410;-78
2021/09/20 07:50:08;;;;;;;2.27;2.17;;;22.60;51.80;;;;;;5106964;28;20428;-78
2021/09/20 07:52:36;;;;;;;2.53;2.43;;;22.60;51.80;;;;;;5106456;28;20424;-78
2021/09/20 07:55:06;;;;;;;2.47;2.27;;;22.60;51.70;;;;;;5106491;28;20398;-78
2021/09/20 07:57:34;;;;;;;2.20;2.10;;;22.60;51.70;;;;;;5103703;28;20429;-77
2021/09/20 08:00:05;;;;;;;2.10;2.00;;;22.70;51.80;;;;;;5106281;28;20403;-77
2021/09/20 08:02:33;;;;;;;2.37;2.27;;;22.70;51.70;;;;;;5104070;28;20529;-77
2021/09/20 08:05:02;;;;;;;2.50;2.30;;;22.70;51.70;;;;;;5106305;28;20403;-78
2021/09/20 08:07:30;;;;;;;2.30;2.00;;;22.70;51.60;;;;;;5106655;28;20440;-78
2021/09/20 08:09:58;;;;;;;2.10;2.00;;;22.80;51.70;;;;;;5106467;28;20433;-78
2021/09/20 08:12:26;;;;;;;2.23;2.13;;;22.80;51.60;;;;;;5106049;28;20410;-78
2021/09/20 08:14:54;;;;;;;2.60;2.40;;;22.80;51.60;;;;;;5104138;28;20436;-78
2021/09/20 08:17:24;;;;;;;2.40;2.30;;;22.80;51.60;;;;;;5106075;28;20436;-77
2021/09/20 08:19:52;;;;;;;2.40;2.30;;;22.90;51.50;;;;;;5105862;28;20415;-77
2021/09/20 08:22:20;;;;;;;2.10;2.00;;;22.90;51.60;;;;;;5105726;28;20454;-78
2021/09/20 08:24:48;;;;;;;2.57;2.37;;;22.90;51.60;;;;;;5105733;28;20410;-78
2021/09/20 08:27:16;;;;;;;3.53;2.47;;;22.90;51.50;;;;;;5106082;28;20430;-77
2021/09/20 08:29:44;;;;;;;2.47;2.37;;;22.90;51.40;;;;;;5106356;28;20415;-77
2021/09/20 08:32:12;;;;;;;2.30;2.20;;;23.00;51.50;;;;;;5105737;28;20410;-78
2021/09/20 08:34:41;;;;;;;2.50;2.40;;;23.00;51.50;;;;;;5105916;28;20484;-78
2021/09/20 08:37:09;;;;;;;2.70;2.50;;;23.00;51.50;;;;;;5105106;28;20432;-78
2021/09/20 08:39:38;;;;;;;2.33;2.23;;;23.00;51.60;;;;;;5105777;28;20424;-78
2021/09/20 08:42:06;;;;;;;1.97;1.90;;;23.00;51.50;;;;;;5105393;28;20524;-77
2021/09/20 08:44:34;;;;;;;2.07;1.97;;;23.10;51.50;;;;;;5105665;28;20442;-78
2021/09/20 08:47:03;;;;;;;2.20;2.10;;;23.10;51.50;;;;;;5105369;28;20432;-78
2021/09/20 08:49:31;;;;;;;2.27;2.17;;;23.10;51.60;;;;;;5105137;28;20442;-78
2021/09/20 08:52:01;;;;;;;2.37;2.00;;;23.10;51.60;;;;;;5105183;28;20436;-78
2021/09/20 08:54:33;;;;;;;2.00;1.90;;;23.10;51.60;;;;;;5104781;28;20435;-78
2021/09/20 08:57:01;;;;;;;2.17;2.07;;;23.10;51.40;;;;;;5105269;28;20484;-78
2021/09/20 08:59:29;;;;;;;2.40;2.30;;;23.20;51.50;;;;;;5105553;28;20445;-79
2021/09/20 09:01:57;;;;;;;1.93;1.83;;;23.20;51.60;;;;;;5105393;28;20442;-77
2021/09/20 09:04:29;;;;;;;2.30;2.17;;;23.20;51.60;;;;;;5105077;28;20443;-78
2021/09/20 09:06:58;;;;;;;2.40;2.30;;;23.20;51.60;;;;;;5105750;28;20454;-77
2021/09/20 09:09:28;;;;;;;2.17;2.00;;;23.30;51.70;;;;;;5105769;28;20444;-77
2021/09/20 09:12:14;;;;;;;2.30;2.00;;;23.30;51.60;;;;;;5105325;28;20407;-80
2021/09/20 09:14:44;;;;;;;2.00;1.90;;;23.30;51.50;;;;;;5105817;28;20410;-77
2021/09/20 09:17:17;;;;;;;2.03;1.93;;;23.30;51.60;;;;;;5105757;28;20483;-78
2021/09/20 09:19:54;;;;;;;2.30;2.20;;;23.30;51.50;;;;;;5099286;28;20447;-76
2021/09/20 09:22:26;;;;;;;2.30;2.10;;;23.40;51.50;;;;;;5095688;28;20463;-77
2021/09/20 09:25:00;;;;;;;2.53;2.43;;;23.40;51.50;;;;;;5095446;28;20423;-75
2021/09/20 09:27:29;;;;;;;2.30;2.10;;;23.40;51.40;;;;;;5094131;28;20430;-79
2021/09/20 09:30:05;;;;;;;3.27;2.60;;;23.40;51.40;;;;;;5087729;28;20424;-77
2021/09/20 09:32:34;;;;;;;2.67;2.47;;;23.50;51.40;;;;;;5096464;28;20451;-77
2021/09/20 09:35:05;;;;;;;2.10;2.00;;;23.50;51.40;;;;;;5095760;28;20446;-77
2021/09/20 09:37:37;;;;;;;2.63;2.43;;;23.50;51.40;;;;;;5096109;28;20451;-77
2021/09/20 09:40:12;;;;;;;2.33;2.23;;;23.50;51.30;;;;;;5095780;28;20451;-77
2021/09/20 09:42:40;;;;;;;2.50;2.30;;;23.50;51.20;;;;;;5092069;28;20470;-76
2021/09/20 09:45:18;;;;;;;2.30;2.20;;;23.50;51.20;;;;;;5096975;28;20475;-76
2021/09/20 09:47:47;;;;;;;2.30;2.20;;;23.60;51.20;;;;;;5101827;28;20459;-76
2021/09/20 09:50:16;;;;;;;2.73;2.53;;;23.60;51.20;;;;;;5100319;28;20447;-77
2021/09/20 09:52:45;;;;;;;3.10;2.80;;;23.60;51.20;;;;;;5102485;28;20505;-76
2021/09/20 09:55:15;;;;;;;2.47;2.30;;;23.70;51.20;;;;;;5095774;28;20427;-76
2021/09/20 09:57:43;;;;;;;2.57;2.37;;;23.70;51.10;;;;;;5098703;28;20427;-76
2021/09/20 10:00:12;;;;;;;2.03;1.87;;;23.70;51.10;;;;;;5094624;28;20451;-76
2021/09/20 10:02:41;;;;;;;4.73;2.40;;;23.70;51.00;;;;;;5099087;28;20508;-75
2021/09/20 10:05:12;;;;;;;2.43;2.33;;;23.70;51.10;;;;;;5096084;28;20415;-76
2021/09/20 10:07:41;;;;;;;2.30;2.20;;;23.80;51.00;;;;;;5096367;28;20500;-76
2021/09/20 10:10:13;;;;;;;2.33;2.23;;;23.80;51.00;;;;;;5104191;28;20423;-76
2021/09/20 10:12:47;;;;;;;2.27;2.17;;;23.80;51.00;;;;;;5096542;28;20456;-76
2021/09/20 10:15:17;;;;;;;3.47;2.70;;;23.90;51.00;;;;;;5102738;28;20478;-75
2021/09/20 10:17:49;;;;;;;3.17;2.47;;;23.90;50.90;;;;;;5096343;28;20453;-76
2021/09/20 10:20:19;;;;;;;2.40;2.30;;;24.00;50.90;;;;;;5100668;28;20448;-76
2021/09/20 10:22:48;;;;;;;3.10;2.87;;;24.10;51.00;;;;;;5098361;28;20471;-75
2021/09/20 10:25:17;;;;;;;6.43;2.70;;;24.10;50.90;;;;;;5102951;28;20448;-75
2021/09/20 10:27:47;;;;;;;2.60;2.40;;;24.20;51.00;;;;;;5100847;28;20434;-75
2021/09/20 10:30:17;;;;;;;2.90;2.67;;;24.40;51.00;;;;;;5097593;28;20453;-75
2021/09/20 10:32:53;;;;;;;2.30;2.20;;;24.50;51.10;;;;;;5105653;28;20508;-76
2021/09/20 10:35:39;;;;;;;3.23;2.50;;;24.60;50.90;;;;;;5096624;28;20439;-75
2021/09/20 10:38:26;;;;;;;2.40;2.30;;;24.80;50.80;;;;;;5103619;28;20511;-75
2021/09/20 10:41:07;;;;;;;2.70;2.40;;;24.90;50.70;;;;;;5098586;28;20524;-75
2021/09/20 10:43:37;;;;;;;2.60;2.30;;;25.00;50.40;;;;;;5094023;28;20575;-75
2021/09/20 10:46:07;;;;;;;2.60;2.40;;;25.10;50.30;;;;;;5093783;28;20506;-75
2021/09/20 10:48:47;;;;;;;2.13;2.00;;;25.10;50.20;;;;;;5095653;28;20471;-75
2021/09/20 10:51:18;;;;;;;3.60;2.50;;;25.10;50.10;;;;;;5095297;28;20421;-74
2021/09/20 10:53:46;;;;;;;1.93;1.83;;;25.20;50.20;;;;;;5097393;28;20435;-74
2021/09/20 10:56:26;;;;;;;2.83;2.70;;;25.20;50.30;;;;;;5092255;28;20426;-75
2021/09/20 10:59:18;;;;;;;2.70;2.50;;;25.40;50.20;;;;;;5097146;28;20422;-74
2021/09/20 11:02:06;;;;;;;3.67;2.70;;;25.50;50.20;;;;;;5107338;28;20418;-74
2021/09/20 11:04:40;;;;;;;2.60;2.50;;;25.50;50.00;;;;;;5093671;28;20511;-74
2021/09/20 11:07:13;;;;;;;2.63;2.53;;;25.50;50.00;;;;;;5097510;28;20705;-74
2021/09/20 11:09:43;;;;;;;6.93;2.40;;;25.50;49.90;;;;;;5093023;28;20520;-74
2021/09/20 11:12:15;;;;;;;3.03;2.50;;;25.80;50.20;;;;;;5091861;28;20479;-74
2021/09/20 11:14:54;;;;;;;2.40;2.30;;;25.90;49.90;;;;;;5095479;28;20423;-74
2021/09/20 11:17:27;;;;;;;2.43;2.10;;;26.10;49.60;;;;;;5088380;27;20489;-74
2021/09/20 11:20:00;;;;;;;2.50;2.30;;;26.20;49.70;;;;;;5100859;27;20524;-74
2021/09/20 11:22:30;;;;;;;2.33;2.13;;;26.30;49.30;;;;;;5096937;28;20454;-74
2021/09/20 11:25:02;;;;;;;2.50;2.40;;;26.30;49.20;;;;;;5101001;27;20497;-74
2021/09/20 11:27:34;;;;;;;2.70;2.50;;;26.20;49.20;;;;;;5100430;27;20435;-74
2021/09/20 11:30:06;;;;;;;2.33;2.20;;;26.20;49.40;;;;;;5099932;28;20414;-74
2021/09/20 11:32:34;;;;;;;2.33;2.20;;;26.10;49.50;;;;;;5105418;28;20524;-74
2021/09/20 11:35:02;;;;;;;4.17;2.47;;;26.00;49.50;;;;;;5100075;28;20535;-74
2021/09/20 11:37:34;;;;;;;2.67;2.47;;;26.00;49.70;;;;;;5107101;27;20633;-74
2021/09/20 11:40:04;;;;;;;2.20;2.00;;;25.90;49.70;;;;;;5095149;28;20430;-74
2021/09/20 11:42:42;;;;;;;4.10;2.40;;;25.90;49.80;;;;;;5102804;28;20455;-74
2021/09/20 11:45:17;;;;;;;2.57;2.47;;;25.90;49.90;;;;;;5101298;28;20455;-74
2021/09/20 11:47:47;;;;;;;2.40;2.20;;;25.80;49.90;;;;;;5103722;28;20450;-74
2021/09/20 11:50:16;;;;;;;2.13;2.03;;;25.70;50.00;;;;;;5089104;28;20561;-74
2021/09/20 11:52:45;;;;;;;4.70;1.90;;;25.70;50.20;;;;;;5102898;27;20512;-74
2021/09/20 11:55:16;;;;;;;2.73;2.53;;;25.70;50.20;;;;;;5109459;27;20414;-74
2021/09/20 11:57:45;;;;;;;2.17;2.07;;;25.70;50.20;;;;;;5108877;27;20536;-74
2021/09/20 12:00:19;;;;;;;2.43;2.33;;;25.70;50.30;;;;;;5102295;27;20426;-74
2021/09/20 12:02:47;;;;;;;5.90;2.40;;;25.70;50.30;;;;;;5099410;27;20449;-74
2021/09/20 12:05:21;;;;;;;2.50;2.30;;;25.60;50.30;;;;;;5104187;27;20426;-74
2021/09/20 12:07:51;;;;;;;2.27;2.17;;;25.70;50.30;;;;;;5107360;27;20418;-74
2021/09/20 12:10:22;;;;;;;2.10;2.00;;;25.70;50.30;;;;;;5094344;27;20454;-75
2021/09/20 12:12:51;;;;;;;2.50;2.30;;;25.70;50.30;;;;;;5101333;28;20454;-75
2021/09/20 12:15:22;;;;;;;2.70;2.50;;;25.70;50.30;;;;;;5097040;27;20460;-74
2021/09/20 12:17:55;;;;;;;4.00;2.43;;;25.70;50.30;;;;;;5104779;27;20501;-75
2021/09/20 12:20:26;;;;;;;2.63;2.43;;;25.70;50.30;;;;;;5098795;27;20422;-75
2021/09/20 12:22:54;;;;;;;2.40;2.23;;;25.70;50.20;;;;;;5096473;28;20449;-74
2021/09/20 12:25:31;;;;;;;2.90;2.17;;;25.70;50.20;;;;;;5103891;27;20448;-74
2021/09/20 12:27:59;;;;;;;2.27;2.17;;;25.70;50.20;;;;;;5097360;27;20582;-76
2021/09/20 12:30:30;;;;;;;2.03;1.93;;;25.80;50.30;;;;;;5097123;27;20456;-75
2021/09/20 12:33:06;;;;;;;2.67;2.27;;;25.80;50.10;;;;;;5105401;27;20422;-74
2021/09/20 12:35:34;;;;;;;2.57;2.37;;;25.90;50.10;;;;;;5093848;27;20426;-74
2021/09/20 12:38:36;;;;;;;2.70;2.50;;;25.90;50.00;;;;;;5108221;27;20463;-74
2021/09/20 12:41:12;;;;;;;2.67;2.30;;;26.00;49.90;;;;;;5095443;27;20421;-74
2021/09/20 12:43:40;;;;;;;3.60;2.27;;;26.00;49.80;;;;;;5101579;27;20467;-74
2021/09/20 12:46:15;;;;;;;2.60;2.40;;;26.10;49.80;;;;;;5099838;27;20443;-75
2021/09/20 12:48:44;;;;;;;2.33;2.23;;;26.10;49.80;;;;;;5105373;27;20458;-74
2021/09/20 12:51:16;;;;;;;2.30;2.10;;;26.00;49.70;;;;;;5107760;27;20447;-73
2021/09/20 12:53:49;;;;;;;2.83;2.20;;;26.00;49.70;;;;;;5101664;27;20493;-74
2021/09/20 12:56:18;;;;;;;2.90;2.47;;;26.00;49.70;;;;;;5096339;27;20514;-74
2021/09/20 12:58:49;;;;;;;6.90;2.30;;;26.00;49.70;;;;;;5096953;27;20547;-75
2021/09/20 13:01:24;;;;;;;2.23;2.13;;;25.90;49.70;;;;;;5100178;27;20455;-74